createdAt,value
2022-11-17T00:01:27.289Z,98665.09
2022-11-17T00:03:56.693Z,98663.16
2022-11-17T00:06:25.224Z,98654.00
2022-11-17T00:08:56.019Z,98649.28
2022-11-17T00:11:24.355Z,98645.19
2022-11-17T00:14:11.031Z,98639.00
2022-11-17T00:16:39.147Z,98637.09
2022-11-17T00:19:24.847Z,98628.91
2022-11-17T00:21:53.702Z,98627.06
2022-11-17T00:24:25.635Z,98623.31
2022-11-17T00:27:02.573Z,98614.53
2022-11-17T00:29:30.945Z,98606.94
2022-11-17T00:32:17.373Z,98603.66
2022-11-17T00:34:46.932Z,98591.03
2022-11-17T00:37:16.956Z,98591.75
2022-11-17T00:39:48.105Z,98589.09
2022-11-17T00:42:16.854Z,98588.97
2022-11-17T00:44:45.283Z,98576.09
2022-11-17T00:47:13.396Z,98578.59
2022-11-17T00:49:43.034Z,98574.19
2022-11-17T00:52:11.755Z,98573.56
2022-11-17T00:54:41.542Z,98567.03
2022-11-17T00:57:11.818Z,98561.16
2022-11-17T00:59:41.367Z,98556.09
2022-11-17T01:02:09.562Z,98550.91
2022-11-17T01:04:41.568Z,98558.38
2022-11-17T01:07:09.890Z,98553.91
2022-11-17T01:09:37.978Z,98549.00
2022-11-17T01:12:06.570Z,98541.50
2022-11-17T01:14:36.400Z,98538.16
2022-11-17T01:17:04.466Z,98532.34
2022-11-17T01:19:32.826Z,98523.31
2022-11-17T01:22:01.124Z,98517.78
2022-11-17T01:24:31.804Z,98515.34
2022-11-17T01:27:02.578Z,98508.22
2022-11-17T01:29:32.820Z,98501.59
2022-11-17T01:32:05.184Z,98491.44
2022-11-17T01:34:35.488Z,98503.22
2022-11-17T01:37:24.607Z,98500.56
2022-11-17T01:39:53.011Z,98500.88
2022-11-17T01:42:23.175Z,98496.28
2022-11-17T01:45:02.590Z,98489.31
2022-11-17T01:47:38.520Z,98485.84
2022-11-17T01:50:15.182Z,98464.03
2022-11-17T01:52:44.770Z,98456.28
2022-11-17T01:55:15.576Z,98464.03
2022-11-17T01:57:50.552Z,98445.44
2022-11-17T02:00:22.105Z,98441.56
2022-11-17T02:02:57.025Z,98424.47
2022-11-17T02:05:38.958Z,98415.16
2022-11-17T02:08:08.536Z,98420.56
2022-11-17T02:10:39.339Z,98411.13
2022-11-17T02:13:10.928Z,98405.06
2022-11-17T02:15:39.667Z,98406.75
2022-11-17T02:18:14.296Z,98397.97
2022-11-17T02:20:55.545Z,98390.59
2022-11-17T02:24:02.326Z,98390.94
2022-11-17T02:27:15.497Z,98385.25
2022-11-17T02:29:55.631Z,98377.06
2022-11-17T02:32:31.218Z,98375.19
2022-11-17T02:35:12.395Z,98376.41
2022-11-17T02:37:54.358Z,98371.34
2022-11-17T02:40:27.695Z,98354.00
2022-11-17T02:43:17.621Z,98353.38
2022-11-17T02:45:54.539Z,98351.78
2022-11-17T02:48:28.185Z,98355.81
2022-11-17T02:50:58.436Z,98340.50
2022-11-17T02:53:30.461Z,98330.00
2022-11-17T02:56:02.300Z,98329.59
2022-11-17T02:58:32.215Z,98329.34
2022-11-17T03:01:15.418Z,98325.34
2022-11-17T03:04:02.508Z,98327.09
2022-11-17T03:06:43.073Z,98330.56
2022-11-17T03:09:20.177Z,98330.78
2022-11-17T03:11:55.095Z,98323.69
2022-11-17T03:14:31.348Z,98319.25
2022-11-17T03:17:07.510Z,98317.59
2022-11-17T03:19:42.543Z,98307.94
2022-11-17T03:22:16.388Z,98324.75
2022-11-17T03:24:49.440Z,98320.22
2022-11-17T03:27:22.829Z,98317.25
2022-11-17T03:29:55.913Z,98324.34
2022-11-17T03:32:27.368Z,98315.53
2022-11-17T03:34:59.628Z,98310.38
2022-11-17T03:37:32.672Z,98315.00
2022-11-17T03:40:05.820Z,98321.88
2022-11-17T03:42:38.828Z,98317.59
2022-11-17T03:45:12.803Z,98310.38
2022-11-17T03:47:44.824Z,98324.47
2022-11-17T03:50:18.424Z,98318.56
2022-11-17T03:52:50.046Z,98334.09
2022-11-17T03:55:20.541Z,98331.50
2022-11-17T03:57:55.124Z,98336.44
2022-11-17T04:00:26.167Z,98335.09
2022-11-17T04:02:58.898Z,98325.97
2022-11-17T04:05:28.100Z,98334.19
2022-11-17T04:07:56.445Z,98320.91
2022-11-17T04:10:26.681Z,98313.53
2022-11-17T04:13:13.069Z,98316.38
2022-11-17T04:15:58.809Z,98316.38
2022-11-17T04:18:28.693Z,98317.31
2022-11-17T04:20:58.232Z,98312.00
2022-11-17T04:23:28.341Z,98312.91
2022-11-17T04:26:18.986Z,98305.28
2022-11-17T04:28:50.151Z,98322.09
2022-11-17T04:31:22.598Z,98313.06
2022-11-17T04:33:53.444Z,98310.06
2022-11-17T04:36:23.566Z,98323.69
2022-11-17T04:38:56.512Z,98328.34
2022-11-17T04:41:44.039Z,98321.88
2022-11-17T04:44:13.902Z,98330.81
2022-11-17T04:46:44.488Z,98335.91
2022-11-17T04:49:15.110Z,98336.22
2022-11-17T04:51:43.901Z,98333.72
2022-11-17T04:54:14.786Z,98335.06
2022-11-17T04:56:45.143Z,98332.47
2022-11-17T04:59:14.073Z,98321.19
2022-11-17T05:01:42.798Z,98312.53
2022-11-17T05:04:14.801Z,98312.06
2022-11-17T05:06:45.745Z,98302.09
2022-11-17T05:09:16.123Z,98293.28
2022-11-17T05:12:02.753Z,98292.00
2022-11-17T05:14:34.176Z,98295.25
2022-11-17T05:17:11.286Z,98299.22
2022-11-17T05:19:44.222Z,98298.75
2022-11-17T05:22:34.980Z,98306.34
2022-11-17T05:25:03.778Z,98300.53
2022-11-17T05:27:33.876Z,98292.81
2022-11-17T05:30:02.874Z,98297.66
2022-11-17T05:32:31.515Z,98294.75
2022-11-17T05:35:00.572Z,98287.94
2022-11-17T05:37:30.185Z,98288.66
2022-11-17T05:39:58.662Z,98287.94
2022-11-17T05:42:27.241Z,98297.22
2022-11-17T05:44:55.556Z,98294.81
2022-11-17T05:47:23.914Z,98290.25
2022-11-17T05:49:52.272Z,98295.03
2022-11-17T05:52:21.386Z,98297.78
2022-11-17T05:54:51.383Z,98294.44
2022-11-17T05:57:30.205Z,98297.66
2022-11-17T06:00:04.508Z,98290.31
2022-11-17T06:02:45.190Z,98290.66
2022-11-17T06:05:19.817Z,98292.56
2022-11-17T06:07:48.704Z,98279.53
2022-11-17T06:10:19.827Z,98282.78
2022-11-17T06:12:49.237Z,98287.94
2022-11-17T06:15:17.715Z,98297.53
2022-11-17T06:17:52.985Z,98295.72
2022-11-17T06:20:26.869Z,98289.44
2022-11-17T06:22:56.994Z,98293.75
2022-11-17T06:25:28.543Z,98293.72
2022-11-17T06:28:03.174Z,98309.03
2022-11-17T06:30:32.068Z,98303.44
2022-11-17T06:33:01.036Z,98303.53
2022-11-17T06:35:34.013Z,98310.63
2022-11-17T06:38:02.586Z,98318.31
2022-11-17T06:40:36.589Z,98317.78
2022-11-17T06:43:08.365Z,98309.81
2022-11-17T06:45:37.906Z,98317.41
2022-11-17T06:48:09.438Z,98319.84
2022-11-17T06:50:37.741Z,98320.59
2022-11-17T06:53:08.422Z,98327.16
2022-11-17T06:55:38.889Z,98325.81
2022-11-17T06:58:08.844Z,98323.88
2022-11-17T07:00:37.611Z,98316.19
2022-11-17T07:03:09.139Z,98313.72
2022-11-17T07:05:40.303Z,98310.34
2022-11-17T07:08:10.789Z,98322.16
2022-11-17T07:10:46.444Z,98330.34
2022-11-17T07:13:17.656Z,98326.03
2022-11-17T07:15:50.480Z,98328.75
2022-11-17T07:18:19.592Z,98326.63
2022-11-17T07:20:48.604Z,98324.47
2022-11-17T07:23:18.062Z,98318.69
2022-11-17T07:25:48.106Z,98312.94
2022-11-17T07:28:16.334Z,98319.91
2022-11-17T07:30:44.558Z,98317.59
2022-11-17T07:33:14.437Z,98310.00
2022-11-17T07:35:43.191Z,98327.34
2022-11-17T07:38:11.409Z,98312.75
2022-11-17T07:40:40.839Z,98312.44
2022-11-17T07:43:11.117Z,98311.22
2022-11-17T07:45:40.104Z,98321.56
2022-11-17T07:48:11.234Z,98330.84
2022-11-17T07:50:41.544Z,98329.34
2022-11-17T07:53:10.631Z,98326.66
2022-11-17T07:55:41.054Z,98326.34
2022-11-17T07:58:10.955Z,98327.56
2022-11-17T08:00:39.607Z,98320.09
2022-11-17T08:03:07.903Z,98328.72
2022-11-17T08:05:42.958Z,98332.66
2022-11-17T08:08:18.147Z,98343.63
2022-11-17T08:10:46.821Z,98351.34
2022-11-17T08:13:16.545Z,98357.53
2022-11-17T08:15:45.005Z,98357.28
2022-11-17T08:18:13.869Z,98347.91
2022-11-17T08:20:42.431Z,98355.31
2022-11-17T08:23:10.616Z,98353.88
2022-11-17T08:25:39.979Z,98361.34
2022-11-17T08:28:10.018Z,98367.63
2022-11-17T08:30:41.227Z,98367.25
2022-11-17T08:33:09.475Z,98366.19
2022-11-17T08:35:38.002Z,98371.75
2022-11-17T08:38:06.849Z,98357.31
2022-11-17T08:40:35.418Z,98357.31
2022-11-17T08:43:06.422Z,98359.28
2022-11-17T08:45:38.559Z,98360.22
2022-11-17T08:48:13.804Z,98369.84
2022-11-17T08:50:42.747Z,98378.06
2022-11-17T08:53:15.668Z,98367.47
2022-11-17T08:55:46.714Z,98373.03
2022-11-17T08:58:15.329Z,98371.25
2022-11-17T09:00:45.524Z,98368.69
2022-11-17T09:03:15.995Z,98360.97
2022-11-17T09:05:50.891Z,98368.41
2022-11-17T09:11:07.918Z,98392.50
2022-11-17T09:13:37.161Z,98384.28
2022-11-17T09:16:09.153Z,98379.88
2022-11-17T09:18:41.389Z,98369.94
2022-11-17T09:21:11.435Z,98378.72
2022-11-17T09:23:41.591Z,98388.63
2022-11-17T09:26:12.546Z,98392.03
2022-11-17T09:28:41.321Z,98410.03
2022-11-17T09:31:12.681Z,98411.69
2022-11-17T09:33:43.834Z,98418.38
2022-11-17T09:36:15.102Z,98423.78
2022-11-17T09:38:44.143Z,98422.78
2022-11-17T09:41:22.767Z,98427.00
2022-11-17T09:43:59.635Z,98435.34
2022-11-17T09:46:38.755Z,98436.53
2022-11-17T09:49:15.811Z,98440.88
2022-11-17T09:51:49.289Z,98438.19
2022-11-17T09:54:24.363Z,98443.50
2022-11-17T09:56:54.729Z,98438.53
2022-11-17T09:59:28.592Z,98446.34
2022-11-17T10:01:57.188Z,98447.56
2022-11-17T10:04:34.673Z,98451.69
2022-11-17T10:07:04.394Z,98440.88
2022-11-17T10:09:39.987Z,98456.03
2022-11-17T10:12:17.510Z,98457.41
2022-11-17T10:14:47.807Z,98456.22
2022-11-17T10:17:18.621Z,98456.94
2022-11-17T10:19:48.325Z,98456.81
2022-11-17T10:22:33.289Z,98462.69
2022-11-17T10:25:02.493Z,98447.97
2022-11-17T10:27:32.684Z,98457.00
2022-11-17T10:30:03.264Z,98453.19
2022-11-17T10:32:36.010Z,98455.00
2022-11-17T10:35:20.231Z,98461.69
2022-11-17T10:38:03.321Z,98458.94
2022-11-17T10:40:33.169Z,98445.78
2022-11-17T10:43:07.792Z,98453.53
2022-11-17T10:45:44.942Z,98445.09
2022-11-17T10:48:25.645Z,98451.78
2022-11-17T10:50:59.152Z,98459.00
2022-11-17T10:53:46.753Z,98452.63
2022-11-17T10:56:19.324Z,98453.19
2022-11-17T10:59:05.098Z,98448.06
2022-11-17T11:01:37.176Z,98454.53
2022-11-17T11:04:08.227Z,98450.72
2022-11-17T11:06:38.584Z,98458.56
2022-11-17T11:09:16.168Z,98443.09
2022-11-17T11:11:50.766Z,98437.94
2022-11-17T11:14:25.714Z,98450.72
2022-11-17T11:16:56.165Z,98447.91
2022-11-17T11:19:27.949Z,98443.63
2022-11-17T11:22:28.135Z,98444.09
2022-11-17T11:25:05.876Z,98445.34
2022-11-17T11:27:55.250Z,98449.97
2022-11-17T11:30:23.859Z,98465.84
2022-11-17T11:33:21.548Z,98455.06
2022-11-17T11:36:01.344Z,98463.59
2022-11-17T11:38:51.998Z,98474.81
2022-11-17T11:41:37.595Z,98468.38
2022-11-17T11:44:28.486Z,98463.94
2022-11-17T11:47:07.829Z,98454.41
2022-11-17T11:49:41.468Z,98453.03
2022-11-17T11:52:17.420Z,98451.09
2022-11-17T11:54:54.766Z,98441.03
2022-11-17T11:57:28.090Z,98436.63
2022-11-17T12:00:04.692Z,98435.94
2022-11-17T12:02:46.847Z,98443.53
2022-11-17T12:05:26.091Z,98447.06
2022-11-17T12:08:10.774Z,98452.28
2022-11-17T12:10:52.089Z,98443.50
2022-11-17T12:13:24.693Z,98444.94
2022-11-17T12:15:56.392Z,98451.13
2022-11-17T12:18:34.149Z,98465.00
2022-11-17T12:21:05.285Z,98449.75
2022-11-17T12:23:41.326Z,98459.00
2022-11-17T12:26:22.119Z,98462.06
2022-11-17T12:28:51.804Z,98465.84
2022-11-17T12:31:45.315Z,98460.06
2022-11-17T12:34:23.863Z,98479.41
2022-11-17T12:37:19.816Z,98473.34
2022-11-17T12:40:05.077Z,98470.41
2022-11-17T12:42:36.603Z,98471.72
2022-11-17T12:45:12.522Z,98465.47
2022-11-17T12:47:44.380Z,98476.06
2022-11-17T12:50:45.439Z,98489.06
2022-11-17T12:53:35.882Z,98482.13
2022-11-17T12:56:22.247Z,98503.31
2022-11-17T12:59:05.488Z,98498.81
2022-11-17T13:01:45.491Z,98503.91
2022-11-17T13:04:18.204Z,98497.16
2022-11-17T13:07:00.882Z,98496.69
2022-11-17T13:09:31.372Z,98488.59
2022-11-17T13:12:01.257Z,98477.84
2022-11-17T13:14:34.558Z,98483.63
2022-11-17T13:17:03.282Z,98471.69
2022-11-17T13:19:35.496Z,98473.25
2022-11-17T13:22:06.681Z,98479.72
2022-11-17T13:24:37.035Z,98487.88
2022-11-17T13:27:08.401Z,98475.09
2022-11-17T13:29:38.923Z,98470.19
2022-11-17T13:32:18.511Z,98467.09
2022-11-17T13:34:54.020Z,98476.06
2022-11-17T13:37:24.540Z,98477.22
2022-11-17T13:40:04.789Z,98483.84
2022-11-17T13:42:34.580Z,98479.69
2022-11-17T13:45:06.558Z,98478.72
2022-11-17T13:47:46.451Z,98481.59
2022-11-17T13:50:39.876Z,98495.72
2022-11-17T13:53:24.401Z,98509.59
2022-11-17T13:55:55.042Z,98488.75
2022-11-17T13:58:42.546Z,98461.75
2022-11-17T14:01:14.383Z,98443.63
2022-11-17T14:03:44.801Z,98479.97
2022-11-17T14:06:15.752Z,98487.56
2022-11-17T14:09:02.326Z,98483.81
2022-11-17T14:11:30.936Z,98487.03
2022-11-17T14:14:01.432Z,98506.19
2022-11-17T14:16:38.712Z,98505.47
2022-11-17T14:19:26.330Z,98510.78
2022-11-17T14:22:05.264Z,98523.09
2022-11-17T14:24:39.675Z,98527.41
2022-11-17T14:27:14.776Z,98524.88
2022-11-17T14:29:43.627Z,98526.59
2022-11-17T14:32:13.672Z,98545.69
2022-11-17T14:34:41.909Z,98542.34
2022-11-17T14:37:11.660Z,98539.69
2022-11-17T14:39:45.019Z,98534.16
2022-11-17T14:42:15.600Z,98550.09
2022-11-17T14:44:44.797Z,98540.19
2022-11-17T14:47:15.416Z,98532.69
2022-11-17T14:49:43.691Z,98532.47
2022-11-17T14:52:13.624Z,98511.00
2022-11-17T14:54:45.141Z,98508.25
2022-11-17T14:57:13.493Z,98518.13
2022-11-17T14:59:44.751Z,98515.81
2022-11-17T15:02:15.406Z,98501.97
2022-11-17T15:04:50.492Z,98511.72
2022-11-17T15:07:21.036Z,98521.34
2022-11-17T15:09:49.635Z,98526.88
2022-11-17T15:12:18.302Z,98531.69
2022-11-17T15:14:48.558Z,98530.25
2022-11-17T15:17:19.271Z,98534.22
2022-11-17T15:19:47.875Z,98532.66
2022-11-17T15:22:17.505Z,98516.03
2022-11-17T15:24:47.776Z,98522.78
2022-11-17T15:27:16.608Z,98524.56
2022-11-17T15:30:44.455Z,98538.66
2022-11-17T15:33:14.296Z,98527.06
2022-11-17T15:35:43.494Z,98529.59
2022-11-17T15:38:14.192Z,98527.75
2022-11-17T15:40:45.522Z,98521.03
2022-11-17T15:43:14.205Z,98521.97
2022-11-17T15:45:43.155Z,98544.56
2022-11-17T15:48:16.103Z,98553.72
2022-11-17T15:50:48.375Z,98569.63
2022-11-17T15:53:18.538Z,98571.78
2022-11-17T15:55:48.953Z,98575.88
2022-11-17T15:58:17.912Z,98577.31
2022-11-17T16:00:52.223Z,98583.72
2022-11-17T16:03:22.488Z,98581.66
2022-11-17T16:05:52.571Z,98577.31
2022-11-17T16:08:20.609Z,98562.03
2022-11-17T16:10:50.332Z,98552.81
2022-11-17T16:13:19.697Z,98553.09
2022-11-17T16:15:49.482Z,98564.97
2022-11-17T16:18:19.434Z,98565.75
2022-11-17T16:20:48.266Z,98564.28
2022-11-17T16:23:18.310Z,98547.69
2022-11-17T16:25:48.439Z,98550.16
2022-11-17T16:28:18.016Z,98545.34
2022-11-17T16:30:46.340Z,98546.91
2022-11-17T16:33:17.568Z,98568.69
2022-11-17T16:35:46.667Z,98558.38
2022-11-17T16:38:17.742Z,98568.13
2022-11-17T16:40:46.113Z,98551.38
2022-11-17T16:43:15.302Z,98550.66
2022-11-17T16:45:46.780Z,98547.63
2022-11-17T16:48:15.164Z,98533.28
2022-11-17T16:50:45.890Z,98534.75
2022-11-17T16:53:15.250Z,98538.38
2022-11-17T16:55:44.883Z,98528.03
2022-11-17T16:58:13.398Z,98517.97
2022-11-17T17:00:44.241Z,98511.81
2022-11-17T17:03:12.416Z,98523.59
2022-11-17T17:05:41.130Z,98528.41
2022-11-17T17:08:09.256Z,98540.31
2022-11-17T17:10:37.410Z,98574.56
2022-11-17T17:13:07.205Z,98590.03
2022-11-17T17:15:36.527Z,98578.91
2022-11-17T17:18:06.165Z,98579.59
2022-11-17T17:20:34.460Z,98580.25
2022-11-17T17:23:03.296Z,98578.25
2022-11-17T17:25:31.684Z,98569.56
2022-11-17T17:28:00.410Z,98558.22
2022-11-17T17:30:31.665Z,98564.63
2022-11-17T17:33:04.463Z,98573.91
2022-11-17T17:35:34.605Z,98575.81
2022-11-17T17:38:03.116Z,98580.63
2022-11-17T17:40:31.355Z,98590.50
2022-11-17T17:43:00.645Z,98595.31
2022-11-17T17:45:30.476Z,98593.84
2022-11-17T17:47:58.848Z,98595.91
2022-11-17T17:50:27.393Z,98591.94
2022-11-17T17:52:58.161Z,98590.16
2022-11-17T17:55:27.985Z,98585.50
2022-11-17T17:57:57.419Z,98600.94
2022-11-17T18:00:25.975Z,98605.28
2022-11-17T18:02:57.809Z,98610.09
2022-11-17T18:05:27.130Z,98608.88
2022-11-17T18:07:56.245Z,98598.81
2022-11-17T18:10:24.635Z,98602.31
2022-11-17T18:12:52.987Z,98599.41
2022-11-17T18:15:22.494Z,98590.66
2022-11-17T18:17:52.279Z,98585.13
2022-11-17T18:20:21.830Z,98584.28
2022-11-17T18:22:53.222Z,98587.75
2022-11-17T18:25:22.382Z,98586.19
2022-11-17T18:27:52.345Z,98593.00
2022-11-17T18:30:20.855Z,98583.13
2022-11-17T18:32:50.657Z,98573.38
2022-11-17T18:35:22.187Z,98578.19
2022-11-17T18:37:51.491Z,98585.06
2022-11-17T18:40:20.134Z,98583.59
2022-11-17T18:42:48.347Z,98582.88
2022-11-17T18:45:18.225Z,98593.94
2022-11-17T18:47:46.500Z,98596.44
2022-11-17T18:50:16.922Z,98596.44
2022-11-17T18:52:49.259Z,98591.34
2022-11-17T18:55:17.635Z,98587.41
2022-11-17T18:57:48.486Z,98587.59
2022-11-17T19:00:18.421Z,98569.72
2022-11-17T19:02:48.528Z,98575.25
2022-11-17T19:05:16.807Z,98574.63
2022-11-17T19:07:56.253Z,98583.72
2022-11-17T19:10:25.790Z,98584.19
2022-11-17T19:12:54.495Z,98580.16
2022-11-17T19:15:24.414Z,98580.63
2022-11-17T19:17:53.898Z,98581.25
2022-11-17T19:20:22.007Z,98582.16
2022-11-17T19:22:55.153Z,98573.78
2022-11-17T19:25:38.667Z,98578.72
2022-11-17T19:28:09.582Z,98584.09
2022-11-17T19:30:38.604Z,98585.41
2022-11-17T19:33:07.786Z,98586.13
2022-11-17T19:35:44.040Z,98589.78
2022-11-17T19:38:13.095Z,98592.84
2022-11-17T19:40:45.091Z,98587.44
2022-11-17T19:43:17.986Z,98582.63
2022-11-17T19:45:47.004Z,98595.47
2022-11-17T19:48:15.427Z,98601.00
2022-11-17T19:50:44.282Z,98593.13
2022-11-17T19:53:13.614Z,98614.38
2022-11-17T19:55:43.404Z,98621.06
2022-11-17T19:58:14.437Z,98611.47
2022-11-17T20:00:43.360Z,98618.75
2022-11-17T20:03:14.002Z,98607.72
2022-11-17T20:05:42.306Z,98608.16
2022-11-17T20:08:11.671Z,98601.13
2022-11-17T20:10:42.135Z,98605.81
2022-11-17T20:13:12.205Z,98604.94
2022-11-17T20:15:40.466Z,98611.06
2022-11-17T20:18:10.846Z,98609.91
2022-11-17T20:20:42.336Z,98620.50
2022-11-17T20:23:11.742Z,98628.19
2022-11-17T20:25:40.694Z,98625.56
2022-11-17T20:28:14.248Z,98625.72
2022-11-17T20:30:43.043Z,98631.38
2022-11-17T20:33:11.755Z,98618.44
2022-11-17T20:35:40.535Z,98614.22
2022-11-17T20:38:13.010Z,98625.28
2022-11-17T20:40:44.230Z,98637.63
2022-11-17T20:43:14.644Z,98641.13
2022-11-17T20:45:43.099Z,98636.91
2022-11-17T20:48:11.411Z,98639.09
2022-11-17T20:50:42.394Z,98647.06
2022-11-17T20:53:13.301Z,98647.22
2022-11-17T20:55:45.539Z,98649.06
2022-11-17T20:58:15.107Z,98654.88
2022-11-17T21:00:44.108Z,98653.25
2022-11-17T21:03:12.337Z,98654.38
2022-11-17T21:05:41.545Z,98663.22
2022-11-17T21:08:11.033Z,98665.41
2022-11-17T21:10:40.233Z,98659.41
2022-11-17T21:13:12.283Z,98665.50
2022-11-17T21:15:46.908Z,98663.50
2022-11-17T21:18:25.293Z,98654.72
2022-11-17T21:20:57.423Z,98664.16
2022-11-17T21:23:27.482Z,98658.63
2022-11-17T21:25:56.332Z,98661.84
2022-11-17T21:28:25.302Z,98667.84
2022-11-17T21:30:55.127Z,98668.56
2022-11-17T21:33:25.881Z,98666.66
2022-11-17T21:35:54.110Z,98671.94
2022-11-17T21:38:22.530Z,98676.84
2022-11-17T21:40:53.427Z,98688.53
2022-11-17T21:43:23.216Z,98688.97
2022-11-17T21:45:51.500Z,98691.59
2022-11-17T21:48:21.351Z,98694.34
2022-11-17T21:50:49.642Z,98699.16
2022-11-17T21:53:18.490Z,98697.25
2022-11-17T21:55:46.711Z,98690.72
2022-11-17T21:58:17.008Z,98696.41
2022-11-17T22:00:47.391Z,98694.22
2022-11-17T22:03:16.651Z,98708.91
2022-11-17T22:05:47.660Z,98703.38
2022-11-17T22:08:16.452Z,98701.47
2022-11-17T22:10:47.521Z,98699.31
2022-11-17T22:13:17.070Z,98711.38
2022-11-17T22:15:49.575Z,98710.50
2022-11-17T22:18:18.261Z,98706.41
2022-11-17T22:20:52.811Z,98705.38
2022-11-17T22:23:24.449Z,98702.22
2022-11-17T22:25:57.114Z,98700.44
2022-11-17T22:28:28.299Z,98711.09
2022-11-17T22:30:57.493Z,98706.47
2022-11-17T22:33:28.776Z,98722.91
2022-11-17T22:36:04.250Z,98720.19
2022-11-17T22:38:32.674Z,98714.78
2022-11-17T22:41:02.052Z,98708.06
2022-11-17T22:43:31.182Z,98707.81
2022-11-17T22:46:05.067Z,98713.97
2022-11-17T22:48:33.937Z,98717.19
2022-11-17T22:51:09.085Z,98712.97
2022-11-17T22:53:37.430Z,98701.78
2022-11-17T22:56:08.659Z,98708.59
2022-11-17T22:58:36.837Z,98706.72
2022-11-17T23:01:06.353Z,98707.75
2022-11-17T23:03:35.049Z,98709.06
2022-11-17T23:06:03.907Z,98705.97
2022-11-17T23:08:34.501Z,98712.69
2022-11-17T23:11:34.826Z,98705.59
2022-11-17T23:13:52.666Z,98717.66
2022-11-17T23:16:24.995Z,98721.03
2022-11-17T23:18:55.017Z,98727.28
2022-11-17T23:21:24.067Z,98730.03
2022-11-17T23:23:53.992Z,98731.50
2022-11-17T23:26:23.556Z,98736.03
2022-11-17T23:28:51.749Z,98729.31
2022-11-17T23:31:20.384Z,98731.06
2022-11-17T23:33:50.066Z,98728.16
2022-11-17T23:36:20.227Z,98735.44
2022-11-17T23:38:49.543Z,98722.63
2022-11-17T23:41:21.335Z,98736.75
2022-11-17T23:43:51.631Z,98735.31
2022-11-17T23:46:21.747Z,98728.03
2022-11-17T23:48:51.750Z,98740.81
2022-11-17T23:51:22.086Z,98737.78
2022-11-17T23:53:51.150Z,98736.75
2022-11-17T23:56:21.963Z,98726.16
2022-11-17T23:58:52.325Z,98734.59
